createdAt,value
2023-04-11T00:00:08.606Z,55.68
2023-04-11T00:03:39.198Z,55.13
2023-04-11T00:07:05.984Z,55.68
2023-04-11T00:10:39.195Z,55.42
2023-04-11T00:14:04.194Z,55.54
2023-04-11T00:17:29.943Z,55.92
2023-04-11T00:21:02.710Z,56.10
2023-04-11T00:24:36.216Z,55.67
2023-04-11T00:28:04.412Z,55.61
2023-04-11T00:31:30.445Z,56.57
2023-04-11T00:35:00.736Z,56.57
2023-04-11T00:38:34.887Z,56.45
2023-04-11T00:42:09.932Z,56.92
2023-04-11T00:45:51.678Z,56.99
2023-04-11T00:49:18.377Z,56.79
2023-04-11T00:52:53.004Z,56.87
2023-04-11T00:56:26.324Z,56.49
2023-04-11T00:59:53.260Z,57.00
2023-04-11T01:03:24.808Z,57.03
2023-04-11T01:06:55.262Z,56.96
2023-04-11T01:10:24.742Z,56.82
2023-04-11T01:13:52.057Z,57.46
2023-04-11T01:17:26.839Z,57.77
2023-04-11T01:21:08.791Z,57.28
2023-04-11T01:24:36.758Z,57.70
2023-04-11T01:28:23.543Z,57.67
2023-04-11T01:32:08.770Z,58.11
2023-04-11T01:35:39.305Z,58.29
2023-04-11T01:39:09.536Z,58.54
2023-04-11T01:42:52.947Z,59.29
2023-04-11T01:46:21.443Z,58.32
2023-04-11T01:49:56.790Z,59.37
2023-04-11T01:53:23.153Z,59.04
2023-04-11T01:56:49.696Z,59.00
2023-04-11T02:00:27.398Z,59.65
2023-04-11T02:03:55.506Z,59.25
2023-04-11T02:07:25.789Z,59.09
2023-04-11T02:10:52.864Z,59.65
2023-04-11T02:14:32.924Z,59.74
2023-04-11T02:18:09.601Z,61.14
2023-04-11T02:21:38.093Z,60.24
2023-04-11T02:25:04.785Z,60.26
2023-04-11T02:28:34.979Z,60.53
2023-04-11T02:32:03.711Z,60.85
2023-04-11T02:35:32.572Z,61.32
2023-04-11T02:38:58.715Z,61.09
2023-04-11T02:42:23.609Z,61.10
2023-04-11T02:45:48.389Z,61.97
2023-04-11T02:49:15.371Z,62.83
2023-04-11T02:53:00.145Z,63.66
2023-04-11T02:56:35.072Z,62.76
2023-04-11T03:00:02.140Z,62.74
2023-04-11T03:03:32.939Z,62.97
2023-04-11T03:07:04.542Z,62.56
2023-04-11T03:10:41.112Z,63.10
2023-04-11T03:14:08.692Z,63.12
2023-04-11T03:17:32.792Z,62.71
2023-04-11T03:20:58.294Z,62.21
2023-04-11T03:24:24.216Z,62.24
2023-04-11T03:27:54.247Z,62.14
2023-04-11T03:31:23.410Z,62.01
2023-04-11T03:34:50.002Z,61.73
2023-04-11T03:38:19.211Z,61.83
2023-04-11T03:41:44.532Z,61.87
2023-04-11T03:45:14.040Z,61.81
2023-04-11T03:48:40.378Z,62.23
2023-04-11T03:52:12.242Z,62.27
2023-04-11T03:55:37.050Z,62.47
2023-04-11T03:59:07.993Z,62.26
2023-04-11T04:02:33.535Z,62.10
2023-04-11T04:05:58.009Z,62.52
2023-04-11T04:09:22.094Z,62.19
2023-04-11T04:12:47.107Z,62.60
2023-04-11T04:16:18.621Z,62.61
2023-04-11T04:19:59.339Z,63.33
2023-04-11T04:23:25.788Z,63.09
2023-04-11T04:26:54.167Z,62.61
2023-04-11T04:30:25.632Z,62.83
2023-04-11T04:33:55.775Z,63.09
2023-04-11T04:37:31.208Z,62.56
2023-04-11T04:41:10.345Z,62.91
2023-04-11T04:44:51.540Z,63.25
2023-04-11T04:48:38.387Z,63.63
2023-04-11T04:52:09.213Z,63.03
2023-04-11T04:56:29.719Z,62.98
2023-04-11T04:59:57.389Z,62.16
2023-04-11T05:03:42.643Z,62.01
2023-04-11T05:07:05.726Z,62.10
2023-04-11T05:10:30.325Z,62.28
2023-04-11T05:13:56.669Z,62.29
2023-04-11T05:17:21.352Z,62.77
2023-04-11T05:20:46.467Z,62.98
2023-04-11T05:24:09.946Z,63.30
2023-04-11T05:27:34.041Z,63.10
2023-04-11T05:30:59.386Z,63.64
2023-04-11T05:34:23.135Z,63.56
2023-04-11T05:37:49.364Z,63.44
2023-04-11T05:41:14.071Z,63.45
2023-04-11T05:44:37.038Z,63.12
2023-04-11T05:48:02.468Z,63.55
2023-04-11T05:51:27.043Z,63.53
2023-04-11T05:54:50.515Z,63.83
2023-04-11T05:58:14.293Z,63.89
2023-04-11T06:01:40.361Z,62.93
2023-04-11T06:05:04.624Z,62.88
2023-04-11T06:08:28.502Z,63.76
2023-04-11T06:11:52.326Z,62.78
2023-04-11T06:15:15.773Z,63.37
2023-04-11T06:18:39.216Z,62.79
2023-04-11T06:22:03.922Z,63.56
2023-04-11T06:25:27.085Z,62.58
2023-04-11T06:28:51.787Z,61.61
2023-04-11T06:32:15.776Z,61.00
2023-04-11T06:35:41.617Z,60.66
2023-04-11T06:39:10.605Z,60.27
2023-04-11T06:42:34.481Z,59.88
2023-04-11T06:45:59.200Z,59.17
2023-04-11T06:49:22.550Z,59.15
2023-04-11T06:52:45.930Z,58.18
2023-04-11T06:56:12.570Z,58.32
2023-04-11T06:59:36.045Z,58.31
2023-04-11T07:03:00.347Z,57.74
2023-04-11T07:06:24.527Z,57.69
2023-04-11T07:09:49.532Z,56.96
2023-04-11T07:13:14.335Z,56.85
2023-04-11T07:16:38.596Z,56.73
2023-04-11T07:20:07.353Z,56.94
2023-04-11T07:23:30.993Z,56.23
2023-04-11T07:26:54.571Z,55.82
2023-04-11T07:30:20.192Z,56.41
2023-04-11T07:33:45.806Z,55.87
2023-04-11T07:37:08.873Z,56.12
2023-04-11T07:40:32.860Z,56.30
2023-04-11T07:43:56.261Z,56.17
2023-04-11T07:47:21.104Z,56.02
2023-04-11T07:50:44.499Z,55.79
2023-04-11T07:54:09.376Z,55.85
2023-04-11T07:57:32.471Z,55.80
2023-04-11T08:00:55.358Z,54.98
2023-04-11T08:04:20.310Z,54.65
2023-04-11T08:07:43.698Z,54.85
2023-04-11T08:11:07.274Z,54.83
2023-04-11T08:14:30.361Z,54.46
2023-04-11T08:17:57.271Z,54.05
2023-04-11T08:21:23.841Z,54.09
2023-04-11T08:24:47.517Z,53.53
2023-04-11T08:28:12.631Z,53.65
2023-04-11T08:31:35.891Z,53.64
2023-04-11T08:34:59.730Z,53.19
2023-04-11T08:38:25.733Z,52.81
2023-04-11T08:41:49.689Z,52.16
2023-04-11T08:45:14.294Z,52.79
2023-04-11T08:48:38.292Z,52.28
2023-04-11T08:52:08.842Z,52.14
2023-04-11T08:55:34.371Z,52.34
2023-04-11T08:58:57.692Z,52.20
2023-04-11T09:02:20.965Z,51.93
2023-04-11T09:05:45.971Z,52.27
2023-04-11T09:09:09.962Z,52.04
2023-04-11T09:12:35.387Z,52.24
2023-04-11T09:16:07.385Z,51.01
2023-04-11T09:19:33.579Z,51.33
2023-04-11T09:22:57.569Z,50.60
2023-04-11T09:26:29.533Z,50.58
2023-04-11T09:29:56.495Z,50.27
2023-04-11T09:33:25.616Z,50.81
2023-04-11T09:36:57.359Z,49.86
2023-04-11T09:40:22.329Z,50.74
2023-04-11T09:43:52.609Z,49.32
2023-04-11T09:47:17.415Z,49.80
2023-04-11T09:50:41.589Z,49.99
2023-04-11T09:54:06.390Z,50.05
2023-04-11T09:57:31.821Z,49.83
2023-04-11T10:00:57.642Z,48.45
2023-04-11T10:04:25.123Z,48.92
2023-04-11T10:07:50.625Z,49.24
2023-04-11T10:11:18.812Z,48.17
2023-04-11T10:14:46.574Z,47.31
2023-04-11T10:18:14.766Z,46.42
2023-04-11T10:21:43.571Z,47.52
2023-04-11T10:25:19.771Z,46.69
2023-04-11T10:28:42.418Z,47.58
2023-04-11T10:32:13.842Z,46.73
2023-04-11T10:35:37.837Z,47.20
2023-04-11T10:39:05.610Z,46.53
2023-04-11T10:42:29.893Z,47.44
2023-04-11T10:46:21.538Z,46.79
2023-04-11T10:49:47.395Z,46.11
2023-04-11T10:53:14.808Z,45.06
2023-04-11T10:56:59.380Z,44.96
2023-04-11T11:00:22.545Z,45.34
2023-04-11T11:03:58.800Z,44.31
2023-04-11T11:07:22.291Z,45.58
2023-04-11T11:10:46.998Z,45.94
2023-04-11T11:14:11.377Z,46.01
2023-04-11T11:17:34.673Z,46.25
2023-04-11T11:20:58.637Z,45.28
2023-04-11T11:24:29.069Z,45.31
2023-04-11T11:28:01.044Z,45.04
2023-04-11T11:31:37.111Z,44.33
2023-04-11T11:34:59.956Z,43.74
2023-04-11T11:38:31.644Z,45.04
2023-04-11T11:41:55.300Z,45.69
2023-04-11T11:45:19.609Z,45.41
2023-04-11T11:48:46.649Z,45.02
2023-04-11T11:52:09.810Z,45.78
2023-04-11T11:55:37.183Z,45.70
2023-04-11T11:59:01.271Z,46.28
2023-04-11T12:02:26.898Z,46.69
2023-04-11T12:05:53.640Z,44.00
2023-04-11T12:09:17.622Z,45.65
2023-04-11T12:12:43.660Z,46.22
2023-04-11T12:16:16.908Z,46.40
2023-04-11T12:19:44.628Z,43.25
2023-04-11T12:23:09.919Z,43.99
2023-04-11T12:26:33.314Z,45.19
2023-04-11T12:29:57.290Z,45.61
2023-04-11T12:33:20.666Z,47.39
2023-04-11T12:36:44.242Z,50.71
2023-04-11T12:40:12.844Z,51.57
2023-04-11T12:43:36.837Z,51.47
2023-04-11T12:47:00.247Z,52.06
2023-04-11T12:50:25.417Z,53.19
2023-04-11T12:53:49.077Z,55.87
2023-04-11T12:57:14.508Z,58.59
2023-04-11T13:00:38.489Z,57.62
2023-04-11T13:04:01.489Z,59.18
2023-04-11T13:07:24.698Z,60.23
2023-04-11T13:10:49.421Z,61.69
2023-04-11T13:14:14.314Z,61.98
2023-04-11T13:17:38.006Z,59.32
2023-04-11T13:21:06.810Z,60.80
2023-04-11T13:24:29.842Z,64.03
2023-04-11T13:27:54.241Z,61.13
2023-04-11T13:31:19.773Z,60.71
2023-04-11T13:34:43.540Z,60.51
2023-04-11T13:38:07.810Z,60.23
2023-04-11T13:41:33.055Z,60.64
2023-04-11T13:45:02.190Z,62.02
2023-04-11T13:48:28.077Z,62.95
2023-04-11T13:51:51.347Z,63.42
2023-04-11T13:55:14.742Z,62.67
2023-04-11T13:58:42.895Z,64.27
2023-04-11T14:02:05.758Z,65.13
2023-04-11T14:05:33.054Z,65.91
2023-04-11T14:08:57.311Z,65.39
2023-04-11T14:12:21.082Z,63.48
2023-04-11T14:15:45.075Z,64.21
2023-04-11T14:19:09.783Z,62.87
2023-04-11T14:22:34.782Z,63.30
2023-04-11T14:25:57.831Z,62.20
2023-04-11T14:29:21.066Z,62.89
2023-04-11T14:32:46.239Z,63.27
2023-04-11T14:36:10.917Z,63.90
2023-04-11T14:39:37.760Z,64.45
2023-04-11T14:43:01.867Z,64.24
2023-04-11T14:46:25.727Z,64.46
2023-04-11T14:49:48.905Z,64.25
2023-04-11T14:53:12.166Z,63.64
2023-04-11T14:56:37.789Z,63.99
2023-04-11T15:00:02.109Z,63.82
2023-04-11T15:03:26.353Z,64.08
2023-04-11T15:06:50.055Z,64.46
2023-04-11T15:10:15.662Z,65.13
2023-04-11T15:13:41.798Z,64.98
2023-04-11T15:17:05.371Z,66.60
2023-04-11T15:20:28.439Z,66.33
2023-04-11T15:23:53.248Z,66.16
2023-04-11T15:27:16.214Z,66.75
2023-04-11T15:30:49.151Z,67.13
2023-04-11T15:34:14.616Z,67.76
2023-04-11T15:37:37.576Z,68.50
2023-04-11T15:41:01.352Z,68.83
2023-04-11T15:44:24.826Z,68.94
2023-04-11T15:47:50.607Z,69.11
2023-04-11T15:51:14.845Z,69.04
2023-04-11T15:54:38.515Z,69.78
2023-04-11T15:58:01.668Z,68.99
2023-04-11T16:01:26.048Z,69.24
2023-04-11T16:04:53.342Z,69.89
2023-04-11T16:08:17.830Z,69.10
2023-04-11T16:11:41.922Z,70.21
2023-04-11T16:15:05.799Z,69.82
2023-04-11T16:18:29.271Z,69.67
2023-04-11T16:21:55.103Z,70.74
2023-04-11T16:25:21.907Z,71.51
2023-04-11T16:28:45.887Z,73.47
2023-04-11T16:32:09.029Z,72.67
2023-04-11T16:35:32.391Z,71.16
2023-04-11T16:38:56.885Z,73.30
2023-04-11T16:42:20.850Z,75.84
2023-04-11T16:45:43.856Z,77.73
2023-04-11T16:49:06.885Z,78.90
2023-04-11T16:52:31.684Z,79.03
2023-04-11T16:55:56.480Z,79.76
2023-04-11T16:59:20.260Z,78.63
2023-04-11T17:02:43.756Z,79.36
2023-04-11T17:06:14.773Z,77.38
2023-04-11T17:09:38.364Z,77.10
2023-04-11T17:13:04.486Z,77.96
2023-04-11T17:16:28.708Z,77.55
2023-04-11T17:19:51.756Z,77.36
2023-04-11T17:23:14.816Z,78.28
2023-04-11T17:26:38.274Z,78.81
2023-04-11T17:30:04.615Z,78.54
2023-04-11T17:33:28.047Z,79.74
2023-04-11T17:36:51.967Z,79.82
2023-04-11T17:40:15.958Z,79.95
2023-04-11T17:43:40.972Z,80.16
2023-04-11T17:47:06.682Z,80.95
2023-04-11T17:50:30.046Z,82.16
2023-04-11T17:53:53.530Z,81.92
2023-04-11T17:57:18.394Z,82.85
2023-04-11T18:00:54.744Z,83.79
2023-04-11T18:04:21.813Z,84.00
2023-04-11T18:07:46.772Z,83.76
2023-04-11T18:11:10.891Z,83.56
2023-04-11T18:14:35.050Z,84.36
2023-04-11T18:17:59.598Z,83.84
2023-04-11T18:21:24.852Z,83.35
2023-04-11T18:24:48.019Z,83.52
2023-04-11T18:28:12.099Z,83.94
2023-04-11T18:31:35.842Z,83.70
2023-04-11T18:34:59.351Z,83.11
2023-04-11T18:38:25.942Z,84.60
2023-04-11T18:41:49.489Z,84.17
2023-04-11T18:45:15.187Z,83.96
2023-04-11T18:48:48.800Z,83.90
2023-04-11T18:52:12.392Z,84.13
2023-04-11T18:55:39.183Z,83.61
2023-04-11T18:59:08.511Z,82.99
2023-04-11T19:02:34.058Z,84.61
2023-04-11T19:06:09.150Z,82.70
2023-04-11T19:09:33.010Z,82.81
2023-04-11T19:12:59.027Z,83.59
2023-04-11T19:16:22.881Z,84.41
2023-04-11T19:19:45.546Z,85.21
2023-04-11T19:23:08.816Z,86.66
2023-04-11T19:26:34.232Z,87.12
2023-04-11T19:29:58.729Z,87.30
2023-04-11T19:33:24.349Z,87.30
2023-04-11T19:36:47.924Z,88.72
2023-04-11T19:40:14.168Z,89.08
2023-04-11T19:43:57.624Z,88.93
2023-04-11T19:47:22.615Z,88.41
2023-04-11T19:50:45.978Z,89.00
2023-04-11T19:54:08.745Z,88.81
2023-04-11T19:57:32.521Z,88.89
2023-04-11T20:00:56.614Z,89.02
2023-04-11T20:04:21.550Z,89.09
2023-04-11T20:07:46.210Z,88.54
2023-04-11T20:11:16.060Z,88.66
2023-04-11T20:14:39.818Z,89.16
2023-04-11T20:18:06.026Z,88.46
2023-04-11T20:21:30.265Z,88.84
2023-04-11T20:24:54.114Z,89.08
2023-04-11T20:28:17.280Z,89.21
2023-04-11T20:31:40.244Z,89.33
2023-04-11T20:35:03.164Z,89.68
2023-04-11T20:38:32.615Z,91.26
2023-04-11T20:41:57.111Z,90.46
2023-04-11T20:45:22.523Z,90.06
2023-04-11T20:48:46.405Z,91.08
2023-04-11T20:52:09.878Z,90.26
2023-04-11T20:55:35.294Z,90.23
2023-04-11T20:58:58.868Z,90.55
2023-04-11T21:02:21.965Z,91.09
2023-04-11T21:05:47.161Z,91.06
2023-04-11T21:09:11.328Z,90.84
2023-04-11T21:12:37.260Z,90.26
2023-04-11T21:16:00.844Z,91.31
2023-04-11T21:19:26.356Z,91.02
2023-04-11T21:22:49.556Z,90.89
2023-04-11T21:26:13.821Z,92.61
2023-04-11T21:29:39.364Z,92.42
2023-04-11T21:33:03.293Z,92.47
2023-04-11T21:36:27.507Z,92.01
2023-04-11T21:39:50.250Z,91.95
2023-04-11T21:43:13.526Z,92.12
2023-04-11T21:46:38.581Z,92.80
2023-04-11T21:50:01.627Z,93.89
2023-04-11T21:53:24.666Z,93.02
2023-04-11T21:56:48.139Z,93.51
2023-04-11T22:00:13.457Z,94.08
2023-04-11T22:03:40.980Z,94.19
2023-04-11T22:07:05.100Z,94.17
2023-04-11T22:10:35.051Z,95.31
2023-04-11T22:14:09.048Z,93.17
2023-04-11T22:17:33.259Z,94.16
2023-04-11T22:20:57.539Z,94.74
2023-04-11T22:24:22.841Z,94.60
2023-04-11T22:27:46.933Z,94.39
2023-04-11T22:31:09.892Z,94.64
2023-04-11T22:34:33.049Z,94.29
2023-04-11T22:38:00.931Z,94.47
2023-04-11T22:41:24.605Z,95.71
2023-04-11T22:44:47.877Z,95.74
2023-04-11T22:48:11.452Z,95.79
2023-04-11T22:51:35.428Z,96.29
2023-04-11T22:54:59.740Z,95.49
2023-04-11T22:58:24.320Z,96.39
2023-04-11T23:01:47.747Z,97.06
2023-04-11T23:05:12.088Z,96.43
2023-04-11T23:08:38.317Z,97.78
2023-04-11T23:12:03.331Z,97.83
2023-04-11T23:15:26.647Z,97.08
2023-04-11T23:18:49.759Z,98.56
2023-04-11T23:22:13.944Z,98.48
2023-04-11T23:25:41.515Z,98.59
2023-04-11T23:29:06.005Z,98.50
2023-04-11T23:32:29.697Z,98.23
2023-04-11T23:35:52.725Z,97.93
2023-04-11T23:39:15.905Z,98.46
2023-04-11T23:42:41.866Z,99.19
2023-04-11T23:46:07.797Z,99.52
2023-04-11T23:49:31.854Z,98.63
2023-04-11T23:52:55.537Z,97.48
2023-04-11T23:56:19.418Z,98.60
2023-04-11T23:59:42.731Z,99.23
